Time;durP1;ratioP1;P1;durP2;ratioP2;P2;SDS_P1;SDS_P2;PMS_P1;PMS_P2;Temp;Humidity;BMP_temperature;BMP_pressure;BME280_temperature;BME280_humidity;BME280_pressure;Samples;Min_cycle;Max_cycle;Signal;HPM_P1;HPM_P2
2023/08/22 00:36:29;;;;;;;6.65;4.30;;;17.70;13.60;;;;;;6177172;23;20017;-94
2023/08/22 00:39:03;;;;;;;6.03;3.55;;;17.80;11.30;;;;;;6160034;23;20021;-94
2023/08/22 00:41:29;;;;;;;4.93;4.32;;;17.70;12.80;;;;;;6208516;23;20047;-94
2023/08/22 00:44:00;;;;;;;4.22;3.25;;;17.70;14.30;;;;;;6163996;23;20021;-93
2023/08/22 00:46:28;;;;;;;6.53;3.40;;;17.70;13.70;;;;;;6188777;23;20013;-94
2023/08/22 00:48:57;;;;;;;4.90;2.83;;;17.60;12.30;;;;;;6188539;23;20021;-94
2023/08/22 00:51:32;;;;;;;4.13;2.70;;;17.60;12.40;;;;;;6169055;23;20013;-95
2023/08/22 00:54:03;;;;;;;4.82;2.75;;;17.30;11.80;;;;;;6192266;23;20017;-95
2023/08/22 00:56:32;;;;;;;3.67;3.25;;;17.60;12.30;;;;;;6165947;23;20016;-95
2023/08/22 00:58:59;;;;;;;5.00;3.03;;;17.70;13.60;;;;;;6166040;23;20078;-95
2023/08/22 01:01:25;;;;;;;6.25;3.88;;;17.60;13.50;;;;;;6192002;23;20445;-95
2023/08/22 01:03:59;;;;;;;4.93;3.22;;;16.60;13.50;;;;;;6190443;23;20016;-95
2023/08/22 01:06:58;;;;;;;3.80;2.92;;;16.90;14.80;;;;;;6191505;23;20541;-95
2023/08/22 01:09:37;;;;;;;4.78;3.50;;;17.60;15.80;;;;;;6193634;23;20020;-95
2023/08/22 01:12:08;;;;;;;6.53;4.50;;;17.60;15.50;;;;;;6167402;23;20021;-94
2023/08/22 01:14:45;;;;;;;5.10;3.72;;;17.50;17.70;;;;;;6190709;23;20023;-94
2023/08/22 01:17:18;;;;;;;8.90;3.80;;;17.40;18.30;;;;;;6217389;23;20015;-94
2023/08/22 01:19:47;;;;;;;9.13;4.00;;;17.50;19.70;;;;;;6167966;23;20455;-91
2023/08/22 01:22:17;;;;;;;7.20;4.13;;;17.50;20.20;;;;;;6165725;23;20446;-94
2023/08/22 01:24:46;;;;;;;6.57;4.72;;;17.40;22.90;;;;;;6190873;23;20028;-93
2023/08/22 01:27:16;;;;;;;9.10;4.97;;;17.30;24.30;;;;;;6190006;23;20024;-93
2023/08/22 01:29:55;;;;;;;6.60;4.60;;;17.60;25.20;;;;;;6191214;23;20021;-95
2023/08/22 01:32:36;;;;;;;6.05;4.68;;;17.60;27.20;;;;;;6167230;23;20022;-94
2023/08/22 01:35:20;;;;;;;9.27;5.28;;;17.60;27.30;;;;;;6189888;23;20075;-94
2023/08/22 01:37:50;;;;;;;6.35;4.25;;;17.60;26.60;;;;;;6190302;23;20021;-93
2023/08/22 01:40:21;;;;;;;5.70;4.25;;;17.50;26.50;;;;;;6188654;23;20312;-95
2023/08/22 01:42:49;;;;;;;7.55;4.47;;;17.50;26.80;;;;;;6193115;23;20349;-92
2023/08/22 01:45:42;;;;;;;6.20;4.20;;;17.50;27.80;;;;;;6140295;23;20434;-94
2023/08/22 01:48:20;;;;;;;6.80;3.83;;;17.50;28.60;;;;;;6189610;23;20024;-94
2023/08/22 01:51:00;;;;;;;4.90;4.45;;;17.50;28.40;;;;;;6143347;23;20021;-91
2023/08/22 01:53:28;;;;;;;;;;;16.90;28.50;;;;;;6217264;23;20340;-94
2023/08/22 01:56:08;;;;;;;7.72;4.80;;;17.50;31.50;;;;;;6190559;23;19926;-94
2023/08/22 01:58:45;;;;;;;6.53;3.72;;;17.40;26.90;;;;;;6142735;23;20016;-93
2023/08/22 02:01:27;;;;;;;;;;;;;;;;;;;;;
2023/08/22 02:04:03;;;;;;;6.18;4.57;;;17.40;26.70;;;;;;6214579;23;20012;-93
2023/08/22 02:06:36;;;;;;;5.88;4.10;;;17.30;27.50;;;;;;6191048;23;20059;-93
2023/08/22 02:09:10;;;;;;;6.32;4.15;;;17.20;29.50;;;;;;6192232;23;20048;-94
2023/08/22 02:11:39;;;;;;;5.45;4.40;;;17.90;30.10;;;;;;6142685;23;20020;-94
2023/08/22 02:14:18;;;;;;;5.40;3.92;;;18.30;30.60;;;;;;6165951;23;20051;-93
2023/08/22 02:16:49;;;;;;;5.05;4.45;;;16.60;30.90;;;;;;6190592;23;20052;-94
2023/08/22 02:19:26;;;;;;;5.38;4.13;;;17.60;31.70;;;;;;6192318;23;20021;-93
2023/08/22 02:21:54;;;;;;;5.70;4.63;;;17.30;32.20;;;;;;6143226;23;20016;-91
2023/08/22 02:24:28;;;;;;;6.38;4.28;;;17.20;32.00;;;;;;6140987;23;20067;-94
2023/08/22 02:27:06;;;;;;;5.97;4.72;;;16.70;30.80;;;;;;6141354;23;20031;-94
2023/08/22 02:29:38;;;;;;;4.65;4.25;;;18.00;31.60;;;;;;6190213;23;20021;-95
2023/08/22 02:32:09;;;;;;;5.65;5.15;;;17.20;31.30;;;;;;6190701;23;20068;-94
2023/08/22 02:34:50;;;;;;;7.38;4.30;;;17.20;31.00;;;;;;6166769;23;20016;-94
2023/08/22 02:37:25;;;;;;;9.82;5.20;;;17.10;30.80;;;;;;6110228;23;20088;-94
2023/08/22 02:39:54;;;;;;;7.63;4.88;;;17.10;31.60;;;;;;6160059;23;20021;-95
2023/08/22 02:42:40;;;;;;;4.95;4.45;;;17.10;31.40;;;;;;6162524;23;20024;-94
2023/08/22 02:45:11;;;;;;;6.72;4.72;;;17.10;31.10;;;;;;6134325;23;20021;-94
2023/08/22 02:47:40;;;;;;;6.07;4.43;;;17.10;30.50;;;;;;6111247;23;20023;-94
2023/08/22 02:50:06;;;;;;;6.57;4.18;;;16.70;29.40;;;;;;6183935;23;20013;-95
2023/08/22 02:52:40;;;;;;;7.15;4.63;;;17.10;29.80;;;;;;6112260;23;20050;-95
2023/08/22 02:55:11;;;;;;;6.13;4.68;;;16.60;30.50;;;;;;6111402;23;20104;-94
2023/08/22 02:58:08;;;;;;;4.93;4.45;;;17.00;31.40;;;;;;6111255;23;20056;-94
2023/08/22 03:00:35;;;;;;;14.10;4.65;;;17.00;30.20;;;;;;6117759;23;20056;-94
2023/08/22 03:03:03;;;;;;;6.45;4.30;;;16.90;27.60;;;;;;6135807;23;20576;-94
2023/08/22 03:05:49;;;;;;;;;;;;;;;;;;;;;
2023/08/22 03:08:15;;;;;;;8.60;4.57;;;16.80;19.10;;;;;;6159115;23;20021;-93
2023/08/22 03:10:56;;;;;;;;;;;;;;;;;;;;;
2023/08/22 03:13:24;;;;;;;5.28;4.07;;;16.70;20.50;;;;;;6160328;23;20017;-94
2023/08/22 03:15:58;;;;;;;5.20;4.00;;;16.80;21.80;;;;;;6139043;23;20027;-94
2023/08/22 03:18:25;;;;;;;7.07;4.38;;;17.70;23.90;;;;;;6135643;23;20484;-94
2023/08/22 03:21:00;;;;;;;5.00;4.50;;;16.60;25.60;;;;;;6160981;23;20028;-93
2023/08/22 03:23:29;;;;;;;7.68;4.05;;;16.60;27.00;;;;;;6114078;23;20017;-93
2023/08/22 03:26:10;;;;;;;4.88;4.07;;;16.70;28.50;;;;;;6136766;23;20052;-94
2023/08/22 03:28:39;;;;;;;8.98;4.80;;;16.60;28.30;;;;;;6134535;23;20056;-94
2023/08/22 03:31:05;;;;;;;7.60;4.45;;;16.60;28.60;;;;;;6158487;23;20028;-94
2023/08/22 03:33:39;;;;;;;8.63;4.40;;;16.60;27.80;;;;;;6158984;23;20019;-93
2023/08/22 03:36:13;;;;;;;4.75;4.35;;;16.60;26.10;;;;;;6136118;23;20032;-93
2023/08/22 03:39:01;;;;;;;;;;;;;;;;;;;;;
2023/08/22 03:41:32;;;;;;;5.30;4.50;;;16.50;23.50;;;;;;6137111;23;20084;-94
2023/08/22 03:44:06;;;;;;;6.10;4.82;;;16.50;23.10;;;;;;6134750;23;20027;-94
2023/08/22 03:46:42;;;;;;;7.38;4.13;;;16.50;22.40;;;;;;6110874;23;20024;-94
2023/08/22 03:49:16;;;;;;;5.03;4.07;;;16.40;20.30;;;;;;6133404;23;20021;-94
2023/08/22 03:51:41;;;;;;;6.35;4.78;;;15.90;17.80;;;;;;6135629;23;20017;-95
2023/08/22 03:54:15;;;;;;;7.00;5.00;;;15.60;16.80;;;;;;6134665;23;20032;-94
2023/08/22 03:56:46;;;;;;;9.85;4.80;;;16.20;14.30;;;;;;6158632;23;20020;-94
2023/08/22 03:59:16;;;;;;;5.20;4.68;;;16.20;14.10;;;;;;6109167;23;20100;-94
2023/08/22 04:02:03;;;;;;;3.97;3.15;;;15.60;13.70;;;;;;6110425;23;20067;-94
2023/08/22 04:04:29;;;;;;;5.07;3.53;;;16.10;14.70;;;;;;6134514;23;20021;-94
2023/08/22 04:07:21;;;;;;;4.10;3.42;;;16.00;14.60;;;;;;6137334;23;20100;-95
2023/08/22 04:09:50;;;;;;;6.93;4.40;;;15.90;10.80;;;;;;6135362;23;20021;-94
2023/08/22 04:12:16;;;;;;;6.63;5.00;;;15.90;14.50;;;;;;6110502;23;20077;-95
2023/08/22 04:14:41;;;;;;;7.45;5.22;;;15.80;15.30;;;;;;6135176;23;20017;-96
2023/08/22 04:17:10;;;;;;;5.93;4.10;;;15.90;16.70;;;;;;6134675;23;20021;-95
2023/08/22 04:19:52;;;;;;;;;;;;;;;;;;;;;
2023/08/22 04:22:21;;;;;;;8.23;5.75;;;15.80;10.90;;;;;;6115880;23;20040;-94
2023/08/22 04:24:52;;;;;;;7.55;5.32;;;15.80;8.30;;;;;;6134883;23;20021;-94
2023/08/22 04:27:38;;;;;;;;;;;;;;;;;;;;;
2023/08/22 04:30:10;;;;;;;10.50;5.68;;;15.70;5.50;;;;;;6185060;23;20561;-93
2023/08/22 04:32:41;;;;;;;4.65;4.22;;;15.60;7.30;;;;;;6185809;23;20358;-94
2023/08/22 04:37:56;;;;;;;8.77;5.35;;;15.50;2.60;;;;;;6187699;23;20063;-94
2023/08/22 04:40:25;;;;;;;6.28;5.05;;;15.40;1.50;;;;;;6137709;23;20024;-94
2023/08/22 04:42:53;;;;;;;6.20;4.53;;;15.40;2.50;;;;;;6161240;23;20017;-95
2023/08/22 04:45:39;;;;;;;7.78;5.85;;;15.40;3.70;;;;;;6136630;23;20013;-94
2023/08/22 04:48:32;;;;;;;5.95;5.20;;;15.30;8.40;;;;;;6160935;23;20091;-94
2023/08/22 04:50:58;;;;;;;7.78;6.13;;;15.30;11.50;;;;;;6096216;23;20017;-95
2023/08/22 04:53:31;;;;;;;6.25;4.75;;;15.30;15.80;;;;;;6160619;23;20051;-96
2023/08/22 04:55:59;;;;;;;5.15;4.65;;;15.30;16.70;;;;;;6137380;23;20013;-94
2023/08/22 04:58:33;;;;;;;5.50;4.47;;;15.30;18.10;;;;;;6160163;23;20024;-95
2023/08/22 05:01:06;;;;;;;4.80;3.92;;;15.40;19.60;;;;;;6136704;23;20017;-95
2023/08/22 05:03:41;;;;;;;5.07;4.20;;;15.30;20.50;;;;;;6137597;23;20024;-95
2023/08/22 05:06:06;;;;;;;6.97;4.30;;;15.30;19.70;;;;;;6115384;23;20030;-95
2023/08/22 05:08:32;;;;;;;5.68;5.07;;;15.40;18.10;;;;;;6141096;23;20017;-95
2023/08/22 05:11:10;;;;;;;5.03;4.53;;;15.40;16.50;;;;;;6136550;23;20037;-95
2023/08/22 05:13:43;;;;;;;4.97;4.47;;;15.40;16.60;;;;;;6138015;23;20021;-95
2023/08/22 05:16:14;;;;;;;5.70;4.82;;;15.50;17.50;;;;;;6136006;23;20025;-95
2023/08/22 05:18:40;;;;;;;5.65;4.97;;;15.50;19.40;;;;;;6113975;23;20017;-96
2023/08/22 05:21:06;;;;;;;5.45;4.28;;;15.50;24.40;;;;;;6137106;23;20017;-94
2023/08/22 05:23:42;;;;;;;;;;;;;;;;;;;;;
2023/08/22 05:26:17;;;;;;;6.07;5.47;;;15.60;29.70;;;;;;6139311;23;20059;-95
2023/08/22 05:28:45;;;;;;;7.80;7.00;;;15.60;31.80;;;;;;6139866;23;20021;-95
2023/08/22 05:31:31;;;;;;;8.98;6.53;;;15.70;34.60;;;;;;6184389;23;20059;-92
2023/08/22 05:34:02;;;;;;;8.05;6.97;;;15.80;37.10;;;;;;6114567;23;20021;-94
2023/08/22 05:36:31;;;;;;;10.10;7.68;;;15.90;37.90;;;;;;6131833;23;20014;-94
2023/08/22 05:38:57;;;;;;;8.40;7.00;;;15.30;38.80;;;;;;6159417;23;20103;-94
2023/08/22 05:41:23;;;;;;;8.85;7.60;;;16.10;39.00;;;;;;6135290;23;20017;-94
2023/08/22 05:43:49;;;;;;;8.82;7.30;;;16.30;38.50;;;;;;6134874;23;20028;-94
2023/08/22 05:46:26;;;;;;;9.75;7.55;;;16.50;37.30;;;;;;6162573;23;20029;-92
2023/08/22 05:49:02;;;;;;;12.05;8.95;;;16.00;34.10;;;;;;6160457;23;20017;-95
2023/08/22 05:51:31;;;;;;;11.95;7.85;;;17.00;34.20;;;;;;6137794;23;20028;-94
2023/08/22 05:54:08;;;;;;;14.23;9.80;;;18.10;32.90;;;;;;6138060;23;20017;-93
2023/08/22 06:01:30;;;;;;;;;;;;;;;;;;;;;
2023/08/22 06:08:43;;;;;;;;;;;;;;;;;;;;;
2023/08/22 06:15:04;;;;;;;15.13;9.82;;;18.40;33.90;;;;;;6153333;23;20035;-92
2023/08/22 06:17:37;;;;;;;15.82;11.00;;;18.00;30.00;;;;;;6159715;23;20016;-88
2023/08/22 06:20:16;;;;;;;14.25;10.85;;;18.40;32.70;;;;;;6160791;23;20021;-92
2023/08/22 06:22:46;;;;;;;14.13;11.13;;;17.70;29.30;;;;;;6161093;23;20020;-87
2023/08/22 06:25:12;;;;;;;13.32;11.25;;;18.50;30.00;;;;;;6109718;23;20053;-92
2023/08/22 06:27:38;;;;;;;14.52;11.15;;;18.50;30.40;;;;;;6132632;23;20052;-91
2023/08/22 06:30:05;;;;;;;13.82;9.40;;;18.40;31.60;;;;;;6133962;23;20017;-90
2023/08/22 06:32:59;;;;;;;13.95;8.95;;;18.30;32.50;;;;;;6110016;23;20060;-95
2023/08/22 06:35:36;;;;;;;14.48;9.10;;;18.70;33.20;;;;;;6074866;23;20017;-90
2023/08/22 06:38:04;;;;;;;10.65;9.55;;;18.20;35.80;;;;;;6136431;23;20044;-92
2023/08/22 06:43:34;;;;;;;13.15;10.05;;;18.20;37.60;;;;;;6182082;23;20538;-90
2023/08/22 06:46:03;;;;;;;14.18;9.82;;;18.10;40.30;;;;;;6134742;23;20013;-91
2023/08/22 06:48:29;;;;;;;11.88;9.43;;;18.20;44.50;;;;;;6156996;23;20013;-89
2023/08/22 06:50:59;;;;;;;12.52;10.27;;;18.40;47.10;;;;;;6108128;23;20479;-92
2023/08/22 06:53:25;;;;;;;15.27;9.40;;;18.50;49.40;;;;;;6133152;23;20024;-94
2023/08/22 06:55:57;;;;;;;12.02;10.20;;;17.80;50.10;;;;;;6134411;23;20017;-92
2023/08/22 06:58:33;;;;;;;12.68;8.55;;;19.10;49.70;;;;;;6109463;23;20013;-91
2023/08/22 07:01:04;;;;;;;14.93;8.15;;;19.30;37.80;;;;;;6158566;23;20524;-88
2023/08/22 07:03:45;;;;;;;10.60;7.97;;;19.50;27.80;;;;;;6182784;23;20013;-89
2023/08/22 07:06:17;;;;;;;12.55;7.78;;;19.30;25.90;;;;;;6111224;23;20087;-86
2023/08/22 07:08:51;;;;;;;10.93;7.55;;;19.90;21.40;;;;;;6110122;23;20052;-92
2023/08/22 07:11:17;;;;;;;10.23;6.85;;;20.10;14.60;;;;;;6134380;23;20025;-91
2023/08/22 07:13:50;;;;;;;10.93;7.00;;;20.60;9.50;;;;;;6157808;23;20025;-93
2023/08/22 07:16:19;;;;;;;12.27;7.38;;;20.90;8.60;;;;;;6133918;23;20132;-90
2023/08/22 07:18:50;;;;;;;7.70;6.88;;;20.40;1.00;;;;;;6133171;23;20453;-91
2023/08/22 07:21:21;;;;;;;13.32;7.25;;;20.40;1.00;;;;;;6158245;23;20075;-89
2023/08/22 07:23:49;;;;;;;10.13;6.68;;;19.40;1.00;;;;;;6132466;23;20023;-93
2023/08/22 07:26:15;;;;;;;10.10;6.82;;;21.00;1.00;;;;;;6109289;23;20017;-92
2023/08/22 07:28:41;;;;;;;8.60;5.82;;;20.30;1.00;;;;;;6133574;23;20323;-90
2023/08/22 07:31:11;;;;;;;11.70;6.30;;;20.50;1.00;;;;;;6182810;23;20017;-91
2023/08/22 07:33:37;;;;;;;14.80;6.55;;;20.50;1.00;;;;;;6133909;23;20055;-88
2023/08/22 07:36:03;;;;;;;10.15;6.00;;;20.60;1.00;;;;;;6133207;23;20021;-92
2023/08/22 07:38:39;;;;;;;10.60;5.63;;;20.70;1.00;;;;;;6133687;23;20017;-92
2023/08/22 07:41:20;;;;;;;10.17;5.47;;;20.80;1.00;;;;;;6134762;23;20021;-93
2023/08/22 07:43:48;;;;;;;9.52;6.15;;;20.80;1.00;;;;;;6133272;23;20017;-91
2023/08/22 07:46:19;;;;;;;8.50;5.38;;;20.10;1.00;;;;;;6134354;23;20087;-92
2023/08/22 07:48:53;;;;;;;9.25;5.20;;;20.80;1.00;;;;;;6134184;23;20017;-93
2023/08/22 07:51:33;;;;;;;6.50;5.40;;;20.80;1.00;;;;;;6157838;23;20017;-93
2023/08/22 07:53:59;;;;;;;9.38;5.88;;;20.80;1.00;;;;;;6108358;23;20025;-90
2023/08/22 07:56:28;;;;;;;14.77;6.32;;;20.70;1.00;;;;;;6132700;23;20024;-90
2023/08/22 07:58:54;;;;;;;9.23;5.47;;;20.70;1.00;;;;;;6107527;23;20095;-91
2023/08/22 08:01:27;;;;;;;8.43;5.40;;;20.60;1.00;;;;;;6108774;23;20021;-91
2023/08/22 08:03:56;;;;;;;9.75;5.15;;;20.20;1.00;;;;;;6133740;23;20013;-87
2023/08/22 08:06:22;;;;;;;8.40;4.90;;;20.60;1.00;;;;;;6133015;23;20052;-87
2023/08/22 08:08:48;;;;;;;13.73;5.40;;;20.60;1.00;;;;;;6157492;23;20021;-87
2023/08/22 08:11:19;;;;;;;8.02;5.68;;;20.70;1.00;;;;;;6132437;23;20017;-94
2023/08/22 08:13:44;;;;;;;11.65;5.95;;;20.50;1.00;;;;;;6108412;23;20460;-93
2023/08/22 08:16:20;;;;;;;;;;;;;;;;;;;;;
2023/08/22 08:18:48;;;;;;;11.43;5.40;;;20.20;1.00;;;;;;6182081;23;20017;-91
2023/08/22 08:21:14;;;;;;;7.45;5.07;;;20.80;1.00;;;;;;6182644;23;20240;-90
2023/08/22 08:23:49;;;;;;;9.95;5.05;;;20.90;1.00;;;;;;6132474;23;20048;-92
2023/08/22 08:26:18;;;;;;;8.05;5.32;;;20.90;1.00;;;;;;6132987;23;20091;-92
2023/08/22 08:29:00;;;;;;;7.82;4.88;;;20.90;1.00;;;;;;6132688;23;20029;-96
2023/08/22 08:31:28;;;;;;;7.28;4.97;;;20.90;1.00;;;;;;6159475;23;20017;-94
2023/08/22 08:34:20;;;;;;;5.97;4.70;;;20.90;1.00;;;;;;6135173;23;20028;-94
2023/08/22 08:51:28;;;;;;;;;;;;;;;;;;;;;
2023/08/22 08:54:42;;;;;;;;;;;;;;;;;;;;;
2023/08/22 09:12:10;;;;;;;4.78;3.05;;;20.70;99.90;;;;;;5892795;24;20074;-91
2023/08/22 09:25:19;;;;;;;2.25;1.48;;;22.10;1.00;;;;;;5969526;23;20024;-94
2023/08/22 09:28:04;;;;;;;;;;;;;;;;;;;;;
2023/08/22 09:35:24;;;;;;;;;;;;;;;;;;;;;
2023/08/22 09:46:32;;;;;;;3.15;1.48;;;21.60;1.00;;;;;;6037224;23;20089;-92
2023/08/22 09:49:09;;;;;;;1.75;1.10;;;22.40;99.90;;;;;;6042396;23;20023;-95
2023/08/22 09:52:48;;;;;;;;;;;;;;;;;;;;;
2023/08/22 09:55:33;;;;;;;2.17;1.80;;;22.40;99.90;;;;;;5968595;24;20194;-95
2023/08/22 09:58:42;;;;;;;5.38;1.58;;;22.40;1.00;;;;;;5934645;24;20069;-96
2023/08/22 10:01:19;;;;;;;3.20;1.98;;;22.40;99.90;;;;;;5938857;24;20015;-92
2023/08/22 10:04:25;;;;;;;2.30;1.90;;;22.30;99.90;;;;;;5934954;24;20029;-96
2023/08/22 10:06:58;;;;;;;3.80;1.70;;;21.60;99.90;;;;;;6012040;23;20074;-92
2023/08/22 10:09:27;;;;;;;3.10;2.05;;;21.30;90.50;;;;;;6081752;23;20029;-95
2023/08/22 10:12:07;;;;;;;4.25;2.30;;;22.80;1.00;;;;;;6105807;23;20018;-94
2023/08/22 10:14:59;;;;;;;6.20;2.38;;;21.50;99.90;;;;;;6107026;23;20017;-95
2023/08/22 10:17:34;;;;;;;3.35;2.05;;;22.40;99.90;;;;;;6101130;23;20014;-96
2023/08/22 10:20:11;;;;;;;3.83;1.88;;;22.50;99.90;;;;;;6155115;23;20017;-96
2023/08/22 10:22:39;;;;;;;7.50;2.25;;;22.40;99.90;;;;;;6107067;23;20447;-96
2023/08/22 10:25:06;;;;;;;5.57;2.40;;;22.50;99.90;;;;;;6106053;23;20019;-96
2023/08/22 10:27:43;;;;;;;6.55;3.33;;;22.60;99.90;;;;;;6106588;23;20052;-96
2023/08/22 10:30:15;;;;;;;4.85;3.10;;;22.90;99.90;;;;;;6130302;23;20030;-96
2023/08/22 10:33:02;;;;;;;3.80;2.80;;;23.30;1.00;;;;;;6131400;23;20024;-95
2023/08/22 10:35:38;;;;;;;;;;;;;;;;;;;;;
2023/08/22 10:38:04;;;;;;;6.32;3.90;;;22.90;99.90;;;;;;6161665;23;20016;-96
2023/08/22 10:40:36;;;;;;;4.97;2.70;;;22.90;99.90;;;;;;6160456;23;20021;-96
2023/08/22 10:43:12;;;;;;;5.03;3.72;;;23.00;99.90;;;;;;6137168;23;20025;-96
2023/08/22 10:45:50;;;;;;;5.10;2.58;;;23.00;82.10;;;;;;6136312;23;20028;-94
2023/08/22 10:48:20;;;;;;;4.65;2.67;;;23.20;99.90;;;;;;6135419;23;20017;-96
2023/08/22 10:50:50;;;;;;;6.05;2.85;;;23.30;1.00;;;;;;6161334;23;20384;-96
2023/08/22 10:53:28;;;;;;;3.85;2.85;;;23.30;99.90;;;;;;6159970;23;20021;-96
2023/08/22 10:55:57;;;;;;;6.78;2.90;;;23.50;99.90;;;;;;6185622;23;20013;-96
2023/08/22 10:58:43;;;;;;;3.72;2.13;;;23.50;99.90;;;;;;6136453;23;20036;-96
2023/08/22 11:01:14;;;;;;;2.97;2.03;;;23.40;99.90;;;;;;6160772;23;20104;-96
2023/08/22 11:03:42;;;;;;;5.45;2.30;;;23.70;1.00;;;;;;6135624;23;20039;-96
2023/08/22 11:06:16;;;;;;;2.75;1.85;;;23.70;1.00;;;;;;6161153;23;20052;-96
2023/08/22 11:08:45;;;;;;;3.42;1.45;;;23.80;27.00;;;;;;6186056;23;20017;-96
2023/08/22 11:11:25;;;;;;;5.28;1.90;;;23.20;1.00;;;;;;6160815;23;20103;-96
2023/08/22 11:14:00;;;;;;;3.58;1.70;;;24.00;99.90;;;;;;6136844;23;20024;-96
2023/08/22 11:16:35;;;;;;;4.75;2.13;;;24.60;99.90;;;;;;6161363;23;20023;-95
2023/08/22 11:19:06;;;;;;;4.22;2.53;;;24.00;1.00;;;;;;6135825;23;20021;-96
2023/08/22 11:21:33;;;;;;;3.40;1.95;;;23.50;99.90;;;;;;6136040;23;20021;-95
2023/08/22 11:24:03;;;;;;;6.65;2.30;;;23.90;99.90;;;;;;6135634;23;20028;-92
2023/08/22 11:26:29;;;;;;;4.22;1.83;;;24.30;1.00;;;;;;6111454;23;20017;-96
2023/08/22 11:28:57;;;;;;;3.90;1.73;;;24.30;99.90;;;;;;6161763;23;20071;-95
2023/08/22 11:31:28;;;;;;;3.17;1.73;;;25.20;99.90;;;;;;6134850;23;20163;-96
2023/08/22 11:33:56;;;;;;;2.90;2.40;;;24.70;99.90;;;;;;6135992;23;20013;-96
2023/08/22 11:36:27;;;;;;;2.45;1.40;;;24.60;99.90;;;;;;6185560;23;20020;-95
2023/08/22 11:38:58;;;;;;;4.35;1.75;;;24.70;1.00;;;;;;6160762;23;20442;-96
2023/08/22 11:41:24;;;;;;;4.22;1.40;;;24.70;97.70;;;;;;6110103;23;20021;-96
2023/08/22 11:43:54;;;;;;;;;;;24.80;1.00;;;;;;6161056;23;20029;-94
2023/08/22 11:46:21;;;;;;;2.63;1.15;;;24.80;99.90;;;;;;6135309;23;19916;-96
2023/08/22 11:48:50;;;;;;;2.60;1.10;;;24.90;99.90;;;;;;6135647;23;20025;-95
2023/08/22 11:54:25;;;;;;;2.28;0.90;;;25.00;99.90;;;;;;6159902;23;20032;-95
2023/08/22 11:56:53;;;;;;;3.67;1.02;;;24.90;99.90;;;;;;6160123;23;20093;-96
2023/08/22 11:59:29;;;;;;;4.38;1.30;;;25.00;99.90;;;;;;6133531;23;20089;-96
2023/08/22 12:02:02;;;;;;;2.25;1.25;;;25.10;99.90;;;;;;6112563;23;20051;-96
2023/08/22 12:04:42;;;;;;;2.17;1.50;;;25.10;99.90;;;;;;6159980;23;20017;-95
2023/08/22 12:07:13;;;;;;;2.15;1.67;;;25.20;99.90;;;;;;6134386;23;20021;-95
2023/08/22 12:09:43;;;;;;;2.60;1.52;;;25.30;99.90;;;;;;6135680;23;20013;-96
2023/08/22 12:12:11;;;;;;;4.70;1.90;;;25.00;99.90;;;;;;6111103;23;20075;-94
2023/08/22 12:14:41;;;;;;;2.03;1.42;;;25.30;94.40;;;;;;6159871;23;20103;-95
2023/08/22 12:17:09;;;;;;;1.80;1.23;;;25.40;43.00;;;;;;6183727;23;20017;-96
2023/08/22 12:19:38;;;;;;;3.10;1.25;;;25.40;99.90;;;;;;6136119;23;20020;-96
2023/08/22 12:22:04;;;;;;;;;;;25.50;1.00;;;;;;6160072;23;20025;-94
2023/08/22 12:24:35;;;;;;;1.90;0.95;;;25.50;99.90;;;;;;6134337;23;19920;-96
2023/08/22 12:27:01;;;;;;;2.58;1.13;;;25.40;1.00;;;;;;6185027;23;20021;-96
2023/08/22 12:29:27;;;;;;;;;;;25.50;1.00;;;;;;6159003;23;20080;-96
2023/08/22 12:31:53;;;;;;;1.08;0.77;;;25.30;1.00;;;;;;6111136;23;19916;-95
2023/08/22 12:34:19;;;;;;;;;;;25.50;99.90;;;;;;6135017;23;20017;-95
2023/08/22 12:36:45;;;;;;;1.60;1.08;;;25.50;99.90;;;;;;6159861;23;20043;-96
2023/08/22 12:39:12;;;;;;;2.65;1.08;;;25.50;99.90;;;;;;6158957;23;20021;-96
2023/08/22 12:41:43;;;;;;;2.08;1.60;;;25.40;1.00;;;;;;6136679;23;20025;-96
2023/08/22 12:44:12;;;;;;;3.75;1.70;;;25.60;1.00;;;;;;6135056;23;20021;-93
2023/08/22 12:46:43;;;;;;;3.10;1.50;;;25.40;99.90;;;;;;6160300;23;20017;-95
2023/08/22 12:49:12;;;;;;;4.65;1.65;;;25.70;1.00;;;;;;6112206;23;20472;-93
2023/08/22 12:51:38;;;;;;;2.42;1.73;;;25.70;1.00;;;;;;6187286;23;20101;-96
2023/08/22 12:54:05;;;;;;;;;;;25.80;1.00;;;;;;6163582;23;20017;-96
2023/08/22 12:56:33;;;;;;;2.00;1.42;;;25.80;1.00;;;;;;6140257;23;19959;-95
2023/08/22 12:59:01;;;;;;;4.00;2.05;;;25.80;1.00;;;;;;6114277;23;20020;-96
2023/08/22 13:01:29;;;;;;;3.75;2.20;;;25.90;99.90;;;;;;6140073;23;20021;-96
2023/08/22 13:04:00;;;;;;;6.95;3.20;;;25.80;1.00;;;;;;6166130;23;20067;-95
2023/08/22 13:06:37;;;;;;;2.33;1.92;;;25.90;1.00;;;;;;6116213;23;20082;-96
2023/08/22 13:09:28;;;;;;;3.42;2.10;;;25.90;1.00;;;;;;6116567;23;20021;-96
2023/08/22 13:11:58;;;;;;;3.17;2.15;;;26.00;1.00;;;;;;6140286;23;20017;-96
2023/08/22 13:14:31;;;;;;;2.90;2.38;;;26.30;1.00;;;;;;6116548;23;20021;-95
2023/08/22 13:17:06;;;;;;;3.97;2.72;;;26.10;1.00;;;;;;6115489;23;20017;-95
2023/08/22 13:19:35;;;;;;;4.38;2.90;;;26.10;1.00;;;;;;6139572;23;20142;-96
2023/08/22 13:22:10;;;;;;;7.03;3.13;;;26.00;1.00;;;;;;6139600;23;20021;-95
2023/08/22 13:24:36;;;;;;;3.42;2.45;;;25.90;1.00;;;;;;6140276;23;20049;-95
2023/08/22 13:27:04;;;;;;;;;;;24.70;1.00;;;;;;6138712;23;20023;-95
2023/08/22 13:29:32;;;;;;;4.00;2.55;;;25.50;1.00;;;;;;6163587;23;19938;-96
2023/08/22 13:32:10;;;;;;;3.22;2.10;;;25.80;1.00;;;;;;6189036;23;20017;-95
2023/08/22 13:34:36;;;;;;;6.68;2.00;;;25.80;1.00;;;;;;6139661;23;20032;-95
2023/08/22 13:37:04;;;;;;;;;;;26.00;1.00;;;;;;6140341;23;20442;-95
2023/08/22 13:39:32;;;;;;;2.05;1.75;;;26.10;1.00;;;;;;6189289;23;19939;-96
2023/08/22 13:41:58;;;;;;;3.30;2.03;;;26.80;1.00;;;;;;6143011;23;20021;-96
2023/08/22 13:44:31;;;;;;;;;;;26.10;99.90;;;;;;6117943;23;20480;-95
2023/08/22 13:47:04;;;;;;;3.50;2.47;;;26.10;1.00;;;;;;6165254;23;19916;-96
2023/08/22 13:49:31;;;;;;;3.47;2.30;;;26.10;99.90;;;;;;6187623;23;20112;-96
2023/08/22 13:52:01;;;;;;;4.60;1.85;;;25.80;1.00;;;;;;6167383;23;20001;-96
2023/08/22 13:54:30;;;;;;;3.53;1.83;;;26.10;1.00;;;;;;6181691;23;20025;-94
2023/08/22 13:56:59;;;;;;;4.43;1.77;;;26.10;1.00;;;;;;6173632;23;20034;-95
2023/08/22 13:59:27;;;;;;;2.03;1.67;;;26.20;99.90;;;;;;6136859;23;20472;-95
2023/08/22 14:01:53;;;;;;;;;;;26.20;1.00;;;;;;6136191;23;20099;-95
2023/08/22 14:04:21;;;;;;;3.47;1.27;;;26.20;99.90;;;;;;6159900;23;19948;-94
2023/08/22 14:06:52;;;;;;;3.58;2.08;;;26.30;1.00;;;;;;6185346;23;20167;-96
2023/08/22 14:09:21;;;;;;;4.07;1.60;;;26.30;1.00;;;;;;6135734;23;20021;-93
2023/08/22 14:11:47;;;;;;;3.95;1.60;;;26.20;99.90;;;;;;6111093;23;20028;-95
2023/08/22 14:14:13;;;;;;;;;;;26.20;99.90;;;;;;6136532;23;20017;-95
2023/08/22 14:16:41;;;;;;;2.90;1.60;;;25.90;99.90;;;;;;6159899;23;19920;-94
2023/08/22 14:19:17;;;;;;;3.80;1.38;;;25.70;1.00;;;;;;6111421;23;20017;-96
2023/08/22 14:21:50;;;;;;;3.40;1.52;;;25.50;1.00;;;;;;6159348;23;20053;-95
2023/08/22 14:24:22;;;;;;;3.22;1.35;;;25.50;1.00;;;;;;6087923;23;20021;-96
2023/08/22 14:26:50;;;;;;;3.63;1.52;;;24.80;1.00;;;;;;6135941;23;20052;-95
2023/08/22 14:29:19;;;;;;;3.40;1.35;;;25.70;1.00;;;;;;6112845;23;20051;-96
2023/08/22 14:31:45;;;;;;;2.42;1.30;;;25.50;1.00;;;;;;6160847;23;20013;-95
2023/08/22 14:34:13;;;;;;;;;;;25.90;99.90;;;;;;6161413;23;20105;-95
2023/08/22 14:36:39;;;;;;;3.58;1.25;;;26.00;99.90;;;;;;6159429;23;19999;-95
2023/08/22 14:39:08;;;;;;;4.20;1.60;;;25.90;99.90;;;;;;6160996;23;20461;-96
2023/08/22 14:41:36;;;;;;;;;;;26.00;99.90;;;;;;6161005;23;20028;-95
2023/08/22 14:44:07;;;;;;;4.25;1.52;;;26.00;99.90;;;;;;6161840;23;19916;-96
2023/08/22 14:46:33;;;;;;;4.38;1.80;;;25.80;99.90;;;;;;6185585;23;20013;-96
2023/08/22 14:48:58;;;;;;;;;;;25.90;99.90;;;;;;6161344;23;20496;-96
2023/08/22 14:54:17;;;;;;;3.67;1.42;;;25.60;1.00;;;;;;6186041;23;20021;-96
2023/08/22 14:56:43;;;;;;;3.13;1.63;;;25.50;1.00;;;;;;6136577;23;20079;-95
2023/08/22 14:59:11;;;;;;;;;;;24.90;1.00;;;;;;6186342;23;20052;-96
2023/08/22 15:01:46;;;;;;;3.67;1.95;;;25.30;1.00;;;;;;6160354;23;19916;-96
2023/08/22 15:04:24;;;;;;;;;;;;;;;;;;;;;
2023/08/22 15:06:51;;;;;;;3.40;1.70;;;25.20;1.00;;;;;;6130842;23;20457;-95
2023/08/22 15:09:16;;;;;;;;;;;25.20;1.00;;;;;;6136024;23;20012;-96
2023/08/22 15:11:44;;;;;;;2.00;1.80;;;25.30;1.00;;;;;;6134813;23;19991;-96
2023/08/22 15:14:15;;;;;;;4.05;1.70;;;25.40;1.00;;;;;;6185062;23;20024;-96
2023/08/22 15:16:41;;;;;;;4.20;2.05;;;25.40;1.00;;;;;;6111157;23;20013;-96
2023/08/22 15:19:11;;;;;;;;;;;25.40;1.00;;;;;;6160697;23;20023;-96
2023/08/22 15:21:48;;;;;;;;;;;;;;;;;;;;;
2023/08/22 15:24:14;;;;;;;4.30;2.17;;;25.50;1.00;;;;;;6185125;23;20017;-96
2023/08/22 15:26:44;;;;;;;;;;;25.40;1.00;;;;;;6159869;23;20095;-95
2023/08/22 15:29:26;;;;;;;4.63;2.05;;;25.50;1.00;;;;;;6137327;23;19963;-96
2023/08/22 15:32:04;;;;;;;4.93;2.00;;;25.50;1.00;;;;;;6095853;23;20027;-95
2023/08/22 15:34:32;;;;;;;3.67;1.35;;;25.80;1.00;;;;;;6111106;23;20021;-94